createdAt,value
2022-12-27T00:00:46.203Z,45.98
2022-12-27T00:01:46.149Z,45.99
2022-12-27T00:02:46.208Z,46.77
2022-12-27T00:03:46.123Z,44.84
2022-12-27T00:04:46.144Z,45.24
2022-12-27T00:05:46.097Z,45.51
2022-12-27T00:06:46.118Z,45.83
2022-12-27T00:07:46.079Z,50.50
2022-12-27T00:08:46.081Z,56.50
2022-12-27T00:09:46.069Z,57.23
2022-12-27T00:10:46.061Z,51.59
2022-12-27T00:11:46.022Z,57.65
2022-12-27T00:12:46.047Z,56.66
2022-12-27T00:16:43.864Z,49.47
2022-12-27T00:17:43.647Z,43.22
2022-12-27T00:18:44.746Z,49.58
2022-12-27T00:19:44.763Z,51.84
2022-12-27T00:20:44.825Z,44.54
2022-12-27T00:21:44.788Z,44.50
2022-12-27T00:22:44.719Z,42.47
2022-12-27T00:23:44.741Z,43.46
2022-12-27T00:24:44.720Z,44.26
2022-12-27T00:25:44.727Z,43.52
2022-12-27T00:26:44.714Z,49.38
2022-12-27T00:27:44.725Z,54.46
2022-12-27T00:28:44.686Z,44.17
2022-12-27T00:29:44.721Z,49.97
2022-12-27T00:30:44.674Z,52.47
2022-12-27T00:31:44.751Z,57.47
2022-12-27T00:32:44.670Z,45.56
2022-12-27T00:33:44.685Z,43.83
2022-12-27T00:34:44.653Z,42.91
2022-12-27T00:35:44.640Z,44.12
2022-12-27T00:36:44.621Z,43.22
2022-12-27T00:37:44.647Z,56.40
2022-12-27T00:38:44.658Z,51.20
2022-12-27T00:39:44.613Z,50.70
2022-12-27T00:40:44.583Z,51.90
2022-12-27T00:41:45.619Z,50.89
2022-12-27T00:45:42.196Z,51.25
2022-12-27T00:46:42.185Z,50.22
2022-12-27T00:47:43.396Z,49.38
2022-12-27T00:48:43.347Z,43.54
2022-12-27T00:49:43.311Z,49.97
2022-12-27T00:50:43.909Z,43.45
2022-12-27T00:51:43.315Z,43.14
2022-12-27T00:52:43.275Z,47.77
2022-12-27T00:54:15.161Z,43.20
2022-12-27T00:54:43.318Z,43.01
2022-12-27T00:55:43.274Z,44.87
2022-12-27T00:56:43.264Z,48.93
2022-12-27T00:57:43.251Z,49.67
2022-12-27T00:58:43.215Z,54.35
2022-12-27T00:59:43.219Z,50.26
2022-12-27T01:00:43.223Z,56.01
2022-12-27T01:01:43.330Z,53.39
2022-12-27T01:02:43.240Z,46.84
2022-12-27T01:03:43.295Z,43.15
2022-12-27T01:04:43.230Z,45.93
2022-12-27T01:05:43.263Z,43.21
2022-12-27T01:06:43.186Z,50.42
2022-12-27T01:07:43.195Z,42.99
2022-12-27T01:08:43.155Z,42.88
2022-12-27T01:09:43.182Z,42.95
2022-12-27T01:10:43.142Z,46.89
2022-12-27T01:11:43.147Z,44.81
2022-12-27T01:12:43.109Z,42.92
2022-12-27T01:13:43.158Z,49.73
2022-12-27T01:14:43.125Z,49.93
2022-12-27T01:15:43.115Z,42.94
2022-12-27T01:16:43.152Z,42.93
2022-12-27T01:17:43.096Z,43.32
2022-12-27T01:18:43.087Z,44.46
2022-12-27T01:19:43.086Z,44.63
2022-12-27T01:20:43.062Z,44.50
2022-12-27T01:21:43.152Z,50.35
2022-12-27T01:22:43.084Z,42.93
2022-12-27T01:23:43.036Z,45.53
2022-12-27T01:24:43.044Z,48.52
2022-12-27T01:25:43.032Z,53.22
2022-12-27T01:26:43.016Z,42.90
2022-12-27T01:27:43.049Z,49.81
2022-12-27T01:28:42.974Z,48.06
2022-12-27T01:29:43.075Z,52.91
2022-12-27T01:30:43.097Z,43.37
2022-12-27T01:31:43.071Z,49.41
2022-12-27T01:32:42.972Z,42.83
2022-12-27T01:33:42.935Z,42.70
2022-12-27T01:34:42.934Z,42.27
2022-12-27T01:35:43.915Z,47.21
2022-12-27T01:36:42.942Z,44.54
2022-12-27T01:37:42.952Z,49.34
2022-12-27T01:38:42.960Z,54.80
2022-12-27T01:39:42.940Z,50.64
2022-12-27T01:40:42.908Z,43.00
2022-12-27T01:41:42.864Z,42.37
2022-12-27T01:42:42.877Z,43.32
2022-12-27T01:43:42.907Z,49.49
2022-12-27T01:44:42.891Z,42.36
2022-12-27T01:45:42.893Z,42.72
2022-12-27T01:46:42.852Z,48.38
2022-12-27T01:47:42.848Z,44.90
2022-12-27T01:48:42.828Z,49.66
2022-12-27T01:49:42.844Z,42.37
2022-12-27T01:50:42.815Z,42.41
2022-12-27T01:51:42.831Z,43.62
2022-12-27T01:52:42.779Z,49.65
2022-12-27T01:53:42.802Z,55.05
2022-12-27T01:54:42.827Z,52.07
2022-12-27T01:55:42.802Z,43.55
2022-12-27T01:56:42.765Z,43.09
2022-12-27T01:57:42.759Z,50.68
2022-12-27T01:58:42.751Z,50.56
2022-12-27T01:59:42.744Z,42.62
2022-12-27T02:00:42.783Z,42.34
2022-12-27T02:01:42.779Z,42.36
2022-12-27T02:02:42.823Z,42.47
2022-12-27T02:03:42.706Z,42.96
2022-12-27T02:04:42.717Z,50.67
2022-12-27T02:05:43.734Z,52.18
2022-12-27T02:07:15.111Z,42.31
2022-12-27T02:07:42.700Z,44.08
2022-12-27T02:08:42.661Z,44.09
2022-12-27T02:09:42.639Z,58.25
2022-12-27T02:10:43.660Z,49.40
2022-12-27T02:11:42.648Z,43.08
2022-12-27T02:12:42.636Z,42.75
2022-12-27T02:13:42.698Z,42.99
2022-12-27T02:14:42.614Z,50.30
2022-12-27T02:15:42.610Z,42.36
2022-12-27T02:16:42.641Z,42.95
2022-12-27T02:17:42.585Z,42.84
2022-12-27T02:18:42.630Z,43.30
2022-12-27T02:19:42.634Z,49.71
2022-12-27T02:20:42.571Z,43.14
2022-12-27T02:21:42.607Z,48.53
2022-12-27T02:22:42.566Z,42.27
2022-12-27T02:23:42.556Z,42.38
2022-12-27T02:24:42.523Z,43.30
2022-12-27T02:25:42.606Z,59.79
2022-12-27T02:26:42.634Z,47.99
2022-12-27T02:27:42.537Z,42.83
2022-12-27T02:28:42.514Z,55.74
2022-12-27T02:29:42.534Z,58.68
2022-12-27T02:30:42.546Z,45.53
2022-12-27T02:31:42.512Z,51.35
2022-12-27T02:32:42.481Z,49.11
2022-12-27T02:33:42.537Z,42.50
2022-12-27T02:34:42.516Z,43.23
2022-12-27T02:35:42.460Z,51.74
2022-12-27T02:36:42.448Z,43.26
2022-12-27T02:37:42.499Z,52.22
2022-12-27T02:38:42.465Z,48.39
2022-12-27T02:39:42.439Z,44.88
2022-12-27T02:40:42.423Z,48.38
2022-12-27T02:41:42.431Z,50.76
2022-12-27T02:42:42.438Z,52.24
2022-12-27T02:43:42.400Z,42.57
2022-12-27T02:44:42.453Z,42.71
2022-12-27T02:45:42.429Z,48.12
2022-12-27T02:46:42.399Z,50.71
2022-12-27T02:47:42.360Z,50.40
2022-12-27T02:48:42.381Z,49.80
2022-12-27T02:49:42.349Z,42.68
2022-12-27T02:50:42.329Z,48.08
2022-12-27T02:51:42.365Z,42.75
2022-12-27T02:52:42.331Z,43.15
2022-12-27T02:53:42.369Z,57.35
2022-12-27T02:54:42.337Z,51.06
2022-12-27T02:55:42.328Z,46.84
2022-12-27T02:56:42.313Z,43.39
2022-12-27T02:57:42.317Z,47.24
2022-12-27T02:58:42.340Z,44.86
2022-12-27T02:59:42.289Z,43.44
2022-12-27T03:00:42.307Z,51.72
2022-12-27T03:01:42.358Z,56.53
2022-12-27T03:02:42.301Z,54.50
2022-12-27T03:03:44.623Z,50.90
2022-12-27T03:04:43.228Z,48.60
2022-12-27T03:05:42.239Z,50.75
2022-12-27T03:06:42.225Z,50.02
2022-12-27T03:07:42.214Z,45.63
2022-12-27T03:08:42.207Z,55.77
2022-12-27T03:09:42.211Z,50.14
2022-12-27T03:10:42.216Z,46.85
2022-12-27T03:11:42.207Z,43.64
2022-12-27T03:12:42.220Z,42.48
2022-12-27T03:13:42.222Z,42.43
2022-12-27T03:14:42.220Z,42.31
2022-12-27T03:15:42.239Z,49.62
2022-12-27T03:16:42.171Z,42.72
2022-12-27T03:17:42.150Z,42.37
2022-12-27T03:18:42.151Z,43.74
2022-12-27T03:19:42.181Z,51.89
2022-12-27T03:20:42.122Z,42.73
2022-12-27T03:21:42.111Z,42.55
2022-12-27T03:22:42.111Z,49.26
2022-12-27T03:23:42.089Z,57.09
2022-12-27T03:24:42.160Z,45.69
2022-12-27T03:25:42.064Z,47.98
2022-12-27T03:26:42.095Z,48.24
2022-12-27T03:27:42.084Z,42.96
2022-12-27T03:28:42.040Z,43.98
2022-12-27T03:29:42.066Z,56.92
2022-12-27T03:30:42.113Z,58.83
2022-12-27T03:31:42.024Z,49.78
2022-12-27T03:32:42.009Z,43.67
2022-12-27T03:33:41.999Z,55.62
2022-12-27T03:34:42.013Z,52.22
2022-12-27T03:35:42.044Z,53.06
2022-12-27T03:36:41.980Z,44.82
2022-12-27T03:37:42.021Z,44.73
2022-12-27T03:38:41.952Z,44.97
2022-12-27T03:39:41.997Z,50.19
2022-12-27T03:40:41.996Z,57.96
2022-12-27T03:41:41.957Z,45.08
2022-12-27T03:42:41.921Z,43.40
2022-12-27T03:43:41.920Z,54.55
2022-12-27T03:44:41.955Z,44.60
2022-12-27T03:45:41.974Z,48.29
2022-12-27T03:46:41.928Z,52.20
2022-12-27T04:03:46.106Z,51.82
2022-12-27T04:04:47.295Z,55.64
2022-12-27T04:05:47.237Z,46.97
2022-12-27T04:06:47.205Z,52.12
2022-12-27T04:07:48.220Z,54.90
2022-12-27T04:08:47.192Z,51.22
2022-12-27T04:09:47.213Z,50.20
2022-12-27T04:10:47.213Z,54.39
2022-12-27T04:11:47.182Z,54.55
2022-12-27T04:12:47.189Z,49.87
2022-12-27T04:13:47.164Z,54.41
2022-12-27T04:14:47.157Z,48.65
2022-12-27T04:15:47.165Z,49.84
2022-12-27T04:16:47.131Z,48.07
2022-12-27T04:17:47.197Z,49.08
2022-12-27T04:18:47.105Z,55.45
2022-12-27T04:19:47.104Z,44.87
2022-12-27T04:20:47.094Z,48.59
2022-12-27T04:21:47.106Z,59.54
2022-12-27T04:22:47.112Z,61.98
2022-12-27T04:23:47.086Z,54.19
2022-12-27T04:24:47.059Z,66.39
2022-12-27T04:25:47.070Z,63.22
2022-12-27T04:26:47.106Z,58.96
2022-12-27T04:27:47.040Z,51.13
2022-12-27T04:28:47.074Z,61.00
2022-12-27T04:29:47.027Z,60.42
2022-12-27T04:30:47.021Z,51.25
2022-12-27T04:31:47.028Z,57.23
2022-12-27T04:32:47.012Z,61.86
2022-12-27T04:33:47.017Z,64.36
2022-12-27T04:34:47.082Z,60.58
2022-12-27T04:35:47.009Z,55.97
2022-12-27T04:36:47.043Z,59.05
2022-12-27T04:37:46.975Z,57.31
2022-12-27T04:38:46.976Z,62.05
2022-12-27T04:39:46.978Z,62.46
2022-12-27T04:40:46.964Z,63.84
2022-12-27T04:41:46.953Z,64.10
2022-12-27T04:42:46.920Z,54.02
2022-12-27T04:43:46.915Z,65.95
2022-12-27T04:44:46.931Z,66.64
2022-12-27T04:45:46.938Z,55.00
2022-12-27T04:46:46.978Z,60.55
2022-12-27T04:47:46.887Z,58.55
2022-12-27T04:48:46.873Z,64.59
2022-12-27T04:49:46.865Z,58.43
2022-12-27T04:50:46.863Z,56.54
2022-12-27T04:51:46.886Z,58.81
2022-12-27T04:52:46.893Z,45.71
2022-12-27T04:53:46.888Z,56.99
2022-12-27T04:54:46.837Z,47.85
2022-12-27T04:55:46.832Z,51.31
2022-12-27T04:56:46.816Z,45.76
2022-12-27T04:57:46.820Z,55.37
2022-12-27T04:58:46.820Z,57.10
2022-12-27T04:59:46.805Z,52.61
2022-12-27T05:00:46.792Z,58.18
2022-12-27T05:01:46.893Z,56.95
2022-12-27T05:02:46.947Z,60.83
2022-12-27T05:03:46.859Z,59.45
2022-12-27T05:04:46.767Z,58.57
2022-12-27T05:05:46.845Z,53.35
2022-12-27T05:06:46.750Z,63.81
2022-12-27T05:07:46.746Z,47.88
2022-12-27T05:08:46.778Z,58.32
2022-12-27T05:09:46.737Z,65.03
2022-12-27T05:10:46.791Z,63.99
2022-12-27T05:11:46.709Z,48.27
2022-12-27T05:12:46.704Z,58.07
2022-12-27T05:13:46.695Z,61.78
2022-12-27T05:14:47.237Z,55.26
2022-12-27T05:15:46.737Z,51.10
2022-12-27T05:16:46.706Z,55.14
2022-12-27T05:17:46.661Z,56.76
2022-12-27T05:18:46.661Z,56.96
2022-12-27T05:19:46.653Z,53.36
2022-12-27T05:20:46.670Z,54.51
2022-12-27T05:22:18.560Z,61.39
2022-12-27T05:22:46.656Z,58.98
2022-12-27T05:24:18.575Z,63.83
2022-12-27T05:24:46.619Z,47.94
2022-12-27T05:26:18.538Z,46.80
2022-12-27T05:27:19.131Z,51.59
2022-12-27T05:28:21.318Z,59.66
2022-12-27T05:29:18.523Z,62.45
2022-12-27T05:29:46.596Z,63.72
2022-12-27T05:30:46.570Z,61.75
2022-12-27T05:31:46.693Z,59.77
2022-12-27T05:32:46.576Z,57.68
2022-12-27T05:33:46.573Z,62.95
2022-12-27T05:34:46.560Z,56.13
2022-12-27T05:35:46.537Z,61.00
2022-12-27T05:36:46.551Z,58.67
2022-12-27T05:37:51.465Z,59.14
2022-12-27T05:38:48.540Z,61.18
2022-12-27T05:39:46.566Z,63.93
2022-12-27T05:40:46.559Z,57.62
2022-12-27T05:41:46.516Z,51.10
2022-12-27T05:42:46.523Z,54.40
2022-12-27T05:43:46.523Z,62.15
2022-12-27T05:44:46.467Z,60.02
2022-12-27T05:45:46.475Z,61.49
2022-12-27T05:46:46.474Z,64.18
2022-12-27T05:47:46.594Z,60.26
2022-12-27T05:48:46.479Z,63.07
2022-12-27T05:49:46.424Z,55.25
2022-12-27T05:50:46.417Z,59.36
2022-12-27T05:51:46.445Z,56.29
2022-12-27T05:52:46.403Z,59.08
2022-12-27T05:53:46.463Z,61.82
2022-12-27T05:54:46.440Z,58.68
2022-12-27T05:55:46.412Z,54.44
2022-12-27T05:56:46.431Z,60.89
2022-12-27T05:57:46.407Z,59.58
2022-12-27T05:58:46.448Z,62.85
2022-12-27T05:59:46.378Z,61.00
2022-12-27T06:00:46.376Z,63.04
2022-12-27T06:01:46.498Z,56.14
2022-12-27T06:02:46.588Z,64.39
2022-12-27T06:03:46.361Z,64.11
2022-12-27T06:04:46.345Z,54.49
2022-12-27T06:05:46.318Z,66.85
2022-12-27T06:06:46.321Z,51.97
2022-12-27T06:07:46.323Z,55.94
2022-12-27T06:08:46.291Z,60.31
2022-12-27T06:09:46.288Z,60.22
2022-12-27T06:10:46.337Z,59.49
2022-12-27T06:11:46.306Z,63.80
2022-12-27T06:12:46.291Z,62.01
2022-12-27T06:13:46.265Z,60.16
2022-12-27T06:14:46.283Z,62.93
2022-12-27T06:15:46.271Z,62.47
2022-12-27T06:16:46.257Z,58.96
2022-12-27T06:17:46.264Z,69.55
2022-12-27T06:18:46.265Z,63.37
2022-12-27T06:19:46.262Z,65.60
2022-12-27T06:20:46.205Z,65.17
2022-12-27T06:21:47.193Z,60.88
2022-12-27T06:22:46.203Z,60.56
2022-12-27T06:23:46.206Z,64.16
2022-12-27T06:24:46.211Z,63.69
2022-12-27T06:25:46.251Z,67.29
2022-12-27T06:26:46.194Z,52.86
2022-12-27T06:27:46.182Z,61.05
2022-12-27T06:28:46.160Z,67.23
2022-12-27T06:29:46.203Z,63.06
2022-12-27T06:30:46.122Z,60.73
2022-12-27T06:31:46.205Z,54.92
2022-12-27T06:32:46.119Z,64.37
2022-12-27T06:33:46.109Z,65.84
2022-12-27T06:34:47.113Z,64.69
2022-12-27T06:35:46.113Z,61.24
2022-12-27T06:36:46.175Z,68.22
2022-12-27T06:37:46.094Z,67.50
2022-12-27T06:38:46.090Z,68.41
2022-12-27T06:39:46.099Z,64.01
2022-12-27T06:40:46.051Z,66.44
2022-12-27T06:41:46.092Z,65.04
2022-12-27T06:42:46.062Z,67.87
2022-12-27T06:43:46.060Z,58.49
2022-12-27T06:44:46.026Z,63.81
2022-12-27T06:45:46.051Z,68.29
2022-12-27T06:46:46.078Z,57.96
2022-12-27T06:47:47.891Z,68.46
2022-12-27T06:48:45.999Z,61.98
2022-12-27T06:49:45.991Z,53.81
2022-12-27T06:50:45.966Z,64.01
2022-12-27T06:51:45.989Z,63.67
2022-12-27T06:52:46.024Z,60.63
2022-12-27T06:53:45.962Z,59.50
2022-12-27T06:54:45.952Z,64.51
2022-12-27T06:55:45.980Z,66.60
2022-12-27T06:56:45.939Z,67.37
2022-12-27T06:57:45.922Z,62.83
2022-12-27T06:58:45.984Z,63.41
2022-12-27T06:59:49.491Z,59.23
2022-12-27T07:00:47.992Z,68.44
2022-12-27T07:01:46.064Z,58.68
2022-12-27T07:02:45.986Z,67.74
2022-12-27T07:03:45.911Z,60.87
2022-12-27T07:04:45.912Z,60.31
2022-12-27T07:05:46.867Z,63.58
2022-12-27T07:06:45.920Z,59.36
2022-12-27T07:07:45.894Z,66.33
2022-12-27T07:08:45.856Z,55.12
2022-12-27T07:09:45.887Z,65.35
2022-12-27T07:10:45.899Z,60.94
2022-12-27T07:11:45.846Z,57.77
2022-12-27T07:12:45.816Z,58.09
2022-12-27T07:13:45.822Z,62.34
2022-12-27T07:14:45.819Z,59.81
2022-12-27T07:15:45.800Z,59.80
2022-12-27T07:16:45.828Z,62.19
2022-12-27T07:17:45.787Z,66.46
2022-12-27T07:18:45.784Z,55.65
2022-12-27T07:19:45.833Z,61.05
2022-12-27T07:20:45.782Z,59.22
2022-12-27T07:21:45.775Z,64.98
2022-12-27T07:22:45.724Z,61.08
2022-12-27T07:23:45.718Z,66.13
2022-12-27T07:24:45.785Z,54.40
2022-12-27T07:25:45.747Z,63.07
2022-12-27T07:26:45.832Z,67.33
2022-12-27T07:27:45.691Z,66.97
2022-12-27T07:28:45.716Z,53.12
2022-12-27T07:29:46.032Z,57.12
2022-12-27T07:30:46.682Z,66.11
2022-12-27T07:31:45.698Z,67.94
2022-12-27T07:32:45.665Z,65.92
2022-12-27T07:33:45.657Z,60.98
2022-12-27T07:34:45.653Z,59.10
2022-12-27T07:35:45.658Z,59.07
2022-12-27T07:36:45.655Z,55.73
2022-12-27T07:37:45.674Z,60.32
2022-12-27T07:38:45.611Z,55.17
2022-12-27T07:39:45.629Z,58.35
2022-12-27T07:40:45.604Z,67.59
2022-12-27T07:41:45.604Z,62.44
2022-12-27T07:42:45.597Z,62.98
2022-12-27T07:43:45.612Z,63.22
2022-12-27T07:44:45.584Z,72.52
2022-12-27T07:45:45.653Z,67.35
2022-12-27T07:46:45.542Z,64.37
2022-12-27T07:47:45.579Z,61.84
2022-12-27T07:48:45.553Z,60.77
2022-12-27T07:49:45.563Z,66.61
2022-12-27T07:50:45.539Z,60.60
2022-12-27T07:51:45.565Z,61.20
2022-12-27T07:52:45.536Z,58.13
2022-12-27T07:53:45.531Z,59.01
2022-12-27T07:54:45.508Z,63.98
2022-12-27T07:55:45.518Z,59.63
2022-12-27T07:56:45.493Z,64.06
2022-12-27T07:57:45.470Z,61.31
2022-12-27T07:58:45.526Z,61.38
2022-12-27T07:59:45.490Z,64.42
2022-12-27T08:00:45.485Z,59.96
2022-12-27T08:01:45.569Z,65.68
2022-12-27T08:02:45.452Z,60.77
2022-12-27T08:03:45.432Z,60.41
2022-12-27T08:04:45.415Z,65.93
2022-12-27T08:05:45.414Z,54.68
2022-12-27T08:06:45.714Z,64.13
2022-12-27T08:08:17.328Z,60.93
2022-12-27T08:08:45.421Z,66.03
2022-12-27T08:10:17.322Z,61.85
2022-12-27T08:10:45.433Z,60.69
2022-12-27T08:11:45.411Z,65.92
2022-12-27T08:12:45.385Z,68.79
2022-12-27T08:13:45.352Z,69.53
2022-12-27T08:14:45.416Z,67.32
2022-12-27T08:15:45.366Z,60.02
2022-12-27T08:16:45.409Z,66.88
2022-12-27T08:17:45.315Z,60.46
2022-12-27T08:18:45.427Z,67.59
2022-12-27T08:19:45.371Z,62.70
2022-12-27T08:20:45.345Z,63.41
2022-12-27T08:21:45.303Z,57.64
2022-12-27T08:22:45.298Z,67.16
2022-12-27T08:23:45.282Z,63.35
2022-12-27T08:24:45.355Z,61.13
2022-12-27T08:25:48.837Z,61.93
2022-12-27T08:26:46.321Z,67.49
2022-12-27T08:27:45.302Z,68.84
2022-12-27T08:28:45.270Z,65.95
2022-12-27T08:29:45.333Z,61.46
2022-12-27T08:30:45.286Z,58.50
2022-12-27T08:31:45.277Z,56.19
2022-12-27T08:32:45.266Z,62.29
2022-12-27T08:33:45.260Z,67.63
2022-12-27T08:34:46.002Z,66.12
2022-12-27T08:35:54.094Z,69.06
2022-12-27T08:36:55.890Z,66.04
2022-12-27T08:37:47.228Z,69.38
2022-12-27T08:38:45.232Z,57.04
2022-12-27T08:39:45.179Z,65.14
2022-12-27T08:40:45.175Z,70.73
2022-12-27T08:41:45.172Z,70.33
2022-12-27T08:42:45.145Z,62.95
2022-12-27T08:43:45.149Z,64.67
2022-12-27T08:44:45.190Z,62.05
2022-12-27T08:45:45.167Z,68.14
2022-12-27T08:46:45.110Z,65.30
2022-12-27T08:47:45.093Z,64.76
2022-12-27T08:48:45.081Z,64.67
2022-12-27T08:49:45.108Z,67.81
2022-12-27T08:50:45.962Z,69.12
2022-12-27T08:51:45.104Z,63.75
2022-12-27T08:52:45.111Z,60.19
2022-12-27T08:53:45.075Z,63.16
2022-12-27T08:54:45.054Z,66.39
2022-12-27T08:55:45.083Z,63.91
2022-12-27T08:56:45.044Z,59.75
2022-12-27T08:57:45.078Z,66.46
2022-12-27T08:58:45.054Z,58.81
2022-12-27T08:59:45.017Z,70.35
2022-12-27T09:00:45.061Z,67.92
2022-12-27T09:01:45.070Z,67.65
2022-12-27T09:02:45.133Z,66.80
2022-12-27T09:03:45.022Z,70.48
2022-12-27T09:04:45.008Z,64.18
2022-12-27T09:05:45.034Z,64.59
2022-12-27T09:06:45.024Z,67.09
2022-12-27T09:07:44.988Z,67.17
2022-12-27T09:08:45.003Z,69.84
2022-12-27T09:09:44.956Z,67.06
2022-12-27T09:10:44.970Z,68.59
2022-12-27T09:11:44.953Z,66.28
2022-12-27T09:12:44.931Z,68.19
2022-12-27T09:13:45.008Z,60.60
2022-12-27T09:14:44.943Z,69.94
2022-12-27T09:15:44.948Z,67.12
2022-12-27T09:16:44.940Z,67.66
2022-12-27T09:17:44.883Z,64.99
2022-12-27T09:18:44.863Z,68.50
2022-12-27T09:19:44.879Z,64.64
2022-12-27T09:20:44.885Z,67.21
2022-12-27T09:21:44.889Z,62.63
2022-12-27T09:22:44.825Z,62.94
2022-12-27T09:23:44.847Z,64.89
2022-12-27T09:24:44.832Z,63.47
2022-12-27T09:25:44.936Z,70.04
2022-12-27T09:26:44.836Z,66.72
2022-12-27T09:27:44.820Z,65.93
2022-12-27T09:28:44.797Z,68.67
2022-12-27T09:29:48.423Z,69.73
2022-12-27T09:30:45.841Z,69.04
2022-12-27T09:31:44.757Z,62.34
2022-12-27T09:32:44.794Z,66.84
2022-12-27T09:33:44.775Z,68.77
2022-12-27T09:34:44.750Z,68.96
2022-12-27T09:35:44.731Z,67.48
2022-12-27T09:36:44.720Z,68.65
2022-12-27T09:37:44.734Z,66.55
2022-12-27T09:38:44.755Z,64.34
2022-12-27T09:39:44.698Z,69.18
2022-12-27T09:40:44.708Z,64.00
2022-12-27T09:42:58.945Z,67.48
2022-12-27T09:43:46.724Z,64.20
2022-12-27T09:44:44.706Z,65.63
2022-12-27T09:45:44.662Z,67.44
2022-12-27T09:46:44.712Z,63.95
2022-12-27T09:47:44.661Z,68.71
2022-12-27T09:48:44.656Z,65.99
2022-12-27T09:49:44.664Z,65.51
2022-12-27T09:50:44.623Z,64.44
2022-12-27T09:51:44.634Z,66.53
2022-12-27T09:52:44.676Z,62.13
2022-12-27T09:53:44.609Z,67.23
2022-12-27T09:54:45.518Z,67.04
2022-12-27T09:55:44.610Z,66.29
2022-12-27T09:57:18.448Z,70.06
2022-12-27T09:57:46.606Z,68.21
2022-12-27T09:58:44.582Z,66.78
2022-12-27T09:59:44.548Z,65.71
2022-12-27T10:00:46.438Z,65.56
2022-12-27T10:01:45.620Z,67.88
2022-12-27T10:02:44.781Z,63.83
2022-12-27T10:03:44.522Z,70.82
2022-12-27T10:05:18.741Z,69.25
2022-12-27T10:05:46.587Z,64.81
2022-12-27T10:06:44.562Z,68.29
2022-12-27T10:07:44.516Z,64.63
2022-12-27T10:08:44.503Z,65.48
2022-12-27T10:09:44.485Z,69.07
2022-12-27T10:10:44.577Z,75.69
2022-12-27T10:11:44.517Z,62.40
2022-12-27T10:12:44.482Z,66.58
2022-12-27T10:13:44.499Z,63.97
2022-12-27T10:14:44.500Z,64.89
2022-12-27T10:15:44.550Z,61.58
2022-12-27T10:16:44.429Z,69.51
2022-12-27T10:17:49.373Z,64.09
2022-12-27T10:18:45.473Z,64.63
2022-12-27T10:19:44.408Z,69.00
2022-12-27T10:20:44.408Z,63.71
2022-12-27T10:21:44.403Z,64.08
2022-12-27T10:22:44.404Z,61.29
2022-12-27T10:23:44.420Z,65.82
2022-12-27T10:24:44.374Z,66.10
2022-12-27T10:25:44.409Z,65.38
2022-12-27T10:26:44.403Z,67.50
2022-12-27T10:27:44.332Z,64.91
2022-12-27T10:28:44.366Z,66.17
2022-12-27T10:29:44.372Z,65.29
2022-12-27T10:30:44.333Z,67.76
2022-12-27T10:31:45.034Z,68.99
2022-12-27T10:32:44.323Z,62.46
2022-12-27T10:33:44.339Z,68.80
2022-12-27T10:34:44.311Z,68.47
2022-12-27T10:35:44.284Z,62.94
2022-12-27T10:36:44.269Z,64.71
2022-12-27T10:37:44.261Z,68.75
2022-12-27T10:38:44.266Z,63.75
2022-12-27T10:39:44.275Z,70.41
2022-12-27T10:40:44.237Z,63.74
2022-12-27T10:41:44.244Z,62.52
2022-12-27T10:42:44.228Z,70.20
2022-12-27T10:43:44.220Z,67.63
2022-12-27T10:44:44.203Z,66.84
2022-12-27T10:45:44.271Z,70.06
2022-12-27T10:46:44.283Z,65.54
2022-12-27T10:47:44.215Z,67.69
2022-12-27T10:49:19.567Z,69.97
2022-12-27T10:49:46.175Z,65.82
2022-12-27T10:50:44.198Z,63.08
2022-12-27T10:51:44.201Z,68.96
2022-12-27T10:52:44.219Z,63.92
2022-12-27T10:53:44.167Z,66.64
2022-12-27T10:54:44.168Z,67.63
2022-12-27T10:55:44.187Z,63.28
2022-12-27T10:56:44.147Z,66.92
2022-12-27T10:57:44.120Z,66.00
2022-12-27T10:58:44.123Z,69.37
2022-12-27T10:59:44.163Z,63.70
2022-12-27T11:00:44.134Z,65.79
2022-12-27T11:01:44.219Z,63.99
2022-12-27T11:02:44.242Z,66.75
2022-12-27T11:03:44.124Z,65.46
2022-12-27T11:04:44.057Z,66.49
2022-12-27T11:05:44.053Z,68.77
2022-12-27T11:06:44.066Z,69.19
2022-12-27T11:07:44.060Z,69.45
2022-12-27T11:08:44.095Z,64.66
2022-12-27T11:09:50.378Z,65.94
2022-12-27T11:10:45.991Z,67.33
2022-12-27T11:11:44.022Z,68.85
2022-12-27T11:13:15.919Z,65.51
2022-12-27T11:13:44.120Z,68.66
2022-12-27T11:14:43.980Z,65.11
2022-12-27T11:15:43.993Z,69.36
2022-12-27T11:16:44.038Z,71.11
2022-12-27T11:17:43.987Z,70.36
2022-12-27T11:18:43.972Z,65.84
2022-12-27T11:19:44.012Z,69.50
2022-12-27T11:20:43.948Z,67.30
2022-12-27T11:21:43.952Z,68.76
2022-12-27T11:22:43.946Z,68.74
2022-12-27T11:23:43.906Z,66.55
2022-12-27T11:24:43.954Z,66.66
2022-12-27T11:25:43.894Z,66.23
2022-12-27T11:26:46.460Z,64.44
2022-12-27T11:27:44.898Z,69.67
2022-12-27T11:28:43.870Z,68.32
2022-12-27T11:29:43.895Z,60.93
2022-12-27T11:30:43.877Z,63.37
2022-12-27T11:31:43.937Z,65.84
2022-12-27T11:32:43.893Z,61.48
2022-12-27T11:33:43.854Z,68.30
2022-12-27T11:34:43.853Z,65.66
2022-12-27T11:35:43.847Z,70.51
2022-12-27T11:36:43.856Z,66.15
2022-12-27T11:37:43.838Z,69.94
2022-12-27T11:38:43.788Z,64.52
2022-12-27T11:39:43.833Z,64.77
2022-12-27T11:40:43.798Z,60.01
2022-12-27T11:41:43.836Z,64.10
2022-12-27T11:42:43.785Z,64.66
2022-12-27T11:43:43.758Z,66.08
2022-12-27T11:44:43.738Z,64.31
2022-12-27T11:45:43.741Z,68.13
2022-12-27T11:46:43.826Z,63.20
2022-12-27T11:47:43.719Z,68.88
2022-12-27T11:48:43.751Z,68.80
2022-12-27T11:49:43.753Z,68.97
2022-12-27T11:50:43.803Z,62.43
2022-12-27T11:51:44.563Z,63.47
2022-12-27T11:53:15.609Z,66.82
2022-12-27T11:53:43.700Z,68.28
2022-12-27T11:54:43.706Z,67.93
2022-12-27T11:55:43.695Z,64.94
2022-12-27T11:56:43.704Z,65.57
2022-12-27T11:57:43.713Z,67.91
2022-12-27T11:58:43.655Z,64.72
2022-12-27T11:59:43.637Z,67.51
2022-12-27T12:00:43.639Z,59.63
2022-12-27T12:01:43.816Z,66.62
2022-12-27T12:02:43.745Z,67.51
2022-12-27T12:03:43.651Z,65.00
2022-12-27T12:04:43.597Z,63.71
2022-12-27T12:05:43.589Z,65.74
2022-12-27T12:06:43.644Z,68.06
2022-12-27T12:07:43.626Z,66.61
2022-12-27T12:08:43.591Z,63.91
2022-12-27T12:09:43.575Z,68.67
2022-12-27T12:10:43.615Z,67.51
2022-12-27T12:11:43.571Z,63.20
2022-12-27T12:12:43.584Z,70.72
2022-12-27T12:13:43.552Z,62.51
2022-12-27T12:14:43.561Z,70.39
2022-12-27T12:15:43.580Z,66.79
2022-12-27T12:16:43.597Z,68.77
2022-12-27T12:17:43.520Z,64.08
2022-12-27T12:18:43.516Z,63.25
2022-12-27T12:19:43.518Z,68.12
2022-12-27T12:20:50.305Z,71.66
2022-12-27T12:21:45.468Z,65.20
2022-12-27T12:22:43.493Z,67.64
2022-12-27T12:23:43.450Z,65.57
2022-12-27T12:24:43.455Z,63.73
2022-12-27T12:25:43.442Z,67.25
2022-12-27T12:26:43.431Z,68.38
2022-12-27T12:27:43.452Z,67.19
2022-12-27T12:28:59.672Z,62.75
2022-12-27T12:29:45.432Z,66.88
2022-12-27T12:30:43.398Z,62.11
2022-12-27T12:31:43.447Z,62.85
2022-12-27T12:32:43.373Z,67.75
2022-12-27T12:33:43.400Z,61.33
2022-12-27T12:35:15.324Z,65.78
2022-12-27T12:35:43.399Z,69.17
2022-12-27T12:36:46.555Z,59.29
2022-12-27T12:37:44.339Z,67.96
2022-12-27T12:38:43.385Z,68.24
2022-12-27T12:39:43.411Z,65.92
2022-12-27T12:40:43.367Z,65.02
2022-12-27T12:41:43.331Z,59.09
2022-12-27T12:42:43.308Z,68.95
2022-12-27T12:43:43.293Z,68.08
2022-12-27T12:44:43.348Z,66.48
2022-12-27T12:45:43.372Z,65.74
2022-12-27T12:46:43.339Z,68.64
2022-12-27T12:47:43.271Z,67.72
2022-12-27T12:48:44.100Z,68.37
2022-12-27T12:49:43.268Z,67.43
2022-12-27T12:50:43.268Z,65.57
2022-12-27T12:51:43.292Z,67.22
2022-12-27T12:52:43.263Z,67.34
2022-12-27T12:53:43.236Z,64.20
2022-12-27T12:54:43.286Z,65.68
2022-12-27T12:55:43.230Z,66.47
2022-12-27T12:56:43.222Z,68.65
2022-12-27T12:57:43.206Z,66.89
2022-12-27T12:58:43.230Z,66.84
2022-12-27T12:59:43.204Z,64.91
2022-12-27T13:00:43.202Z,65.52
2022-12-27T13:01:50.264Z,68.23
2022-12-27T13:02:45.416Z,66.32
2022-12-27T13:03:43.167Z,65.03
2022-12-27T13:04:43.162Z,67.30
2022-12-27T13:05:43.176Z,64.87
2022-12-27T13:06:43.138Z,69.87
2022-12-27T13:07:43.135Z,65.20
2022-12-27T13:08:43.146Z,66.67
2022-12-27T13:09:43.112Z,65.40
2022-12-27T13:10:43.154Z,68.80
2022-12-27T13:11:43.102Z,62.89
2022-12-27T13:12:47.489Z,70.04
2022-12-27T13:13:45.069Z,66.38
2022-12-27T13:14:43.074Z,62.48
2022-12-27T13:15:43.087Z,66.98